createdAt,value
2018-04-11T00:01:34.085Z,17.70
2018-04-11T00:06:36.563Z,17.80
2018-04-11T00:11:39.053Z,17.60
2018-04-11T00:16:41.540Z,17.80
2018-04-11T00:21:44.047Z,17.80
2018-04-11T00:26:46.536Z,17.50
2018-04-11T00:31:49.028Z,17.80
2018-04-11T00:36:51.537Z,17.60
2018-04-11T00:41:54.208Z,17.70
2018-04-11T00:46:56.708Z,17.70
2018-04-11T00:51:59.204Z,17.60
2018-04-11T00:57:01.692Z,17.60
2018-04-11T01:02:04.187Z,17.70
2018-04-11T01:07:06.679Z,17.50
2018-04-11T01:12:09.172Z,17.30
2018-04-11T01:17:11.676Z,17.40
2018-04-11T01:22:14.228Z,17.20
2018-04-11T01:27:16.676Z,17.70
2018-04-11T01:32:19.188Z,17.20
2018-04-11T01:37:22.448Z,17.30
2018-04-11T01:42:24.956Z,17.30
2018-04-11T01:47:27.463Z,17.60
2018-04-11T01:52:29.956Z,17.40
2018-04-11T01:57:32.441Z,17.10
2018-04-11T02:02:34.932Z,17.20
2018-04-11T02:07:37.415Z,17.20
2018-04-11T02:12:39.904Z,17.50
2018-04-11T02:17:42.420Z,17.00
2018-04-11T02:22:44.920Z,17.30
2018-04-11T02:27:48.180Z,17.00
2018-04-11T02:32:51.436Z,17.20
2018-04-11T02:37:53.923Z,17.10
2018-04-11T02:42:56.424Z,17.10
2018-04-11T02:47:58.929Z,17.00
2018-04-11T02:53:02.197Z,17.00
2018-04-11T02:58:04.701Z,16.90
2018-04-11T03:03:07.206Z,17.10
2018-04-11T03:08:09.703Z,16.90
2018-04-11T03:13:12.214Z,17.00
2018-04-11T03:18:15.472Z,16.80
2018-04-11T03:23:17.972Z,16.90
2018-04-11T03:28:20.473Z,16.60
2018-04-11T03:33:22.960Z,16.90
2018-04-11T03:38:25.448Z,16.60
2018-04-11T03:43:27.952Z,16.80
2018-04-11T03:48:30.459Z,17.00
2018-04-11T03:53:32.943Z,16.90
2018-04-11T03:58:35.435Z,16.90
2018-04-11T04:03:37.923Z,16.70
2018-04-11T04:08:40.420Z,16.70
2018-04-11T04:13:54.880Z,16.70
2018-04-11T04:19:09.320Z,16.80
2018-04-11T04:24:11.816Z,16.80
2018-04-11T04:29:14.306Z,16.60
2018-04-11T04:34:16.814Z,16.80
2018-04-11T04:39:19.316Z,16.80
2018-04-11T04:44:21.829Z,16.80
2018-04-11T04:49:24.321Z,16.90
2018-04-11T04:54:27.196Z,16.60
2018-04-11T04:59:29.700Z,16.50
2018-04-11T05:04:32.983Z,16.50
2018-04-11T05:09:35.488Z,16.60
2018-04-11T05:14:37.987Z,16.70
2018-04-11T05:19:40.487Z,16.80
2018-04-11T05:24:42.975Z,16.60
2018-04-11T05:29:45.471Z,16.50
2018-04-11T05:34:47.971Z,16.50
2018-04-11T05:39:51.352Z,16.50
2018-04-11T05:44:53.842Z,16.60
2018-04-11T05:49:56.336Z,16.50
2018-04-11T05:54:58.840Z,16.70
2018-04-11T06:00:01.337Z,16.60
2018-04-11T06:05:03.839Z,16.40
2018-04-11T06:10:06.524Z,16.30
2018-04-11T06:15:09.016Z,16.70
2018-04-11T06:20:11.528Z,16.50
2018-04-11T06:25:14.037Z,16.60
2018-04-11T06:30:16.791Z,16.70
2018-04-11T06:35:19.297Z,16.30
2018-04-11T06:40:21.792Z,16.80
2018-04-11T06:45:24.299Z,16.60
2018-04-11T06:50:27.000Z,16.60
2018-04-11T06:55:29.491Z,16.60
2018-04-11T07:00:31.984Z,16.70
2018-04-11T07:05:34.490Z,16.80
2018-04-11T07:10:36.979Z,16.70
2018-04-11T07:15:39.488Z,16.80
2018-04-11T07:20:41.992Z,16.90
2018-04-11T07:25:44.520Z,16.70
2018-04-11T07:30:46.968Z,16.50
2018-04-11T07:35:50.244Z,16.80
2018-04-11T07:40:52.744Z,16.90
2018-04-11T07:45:55.252Z,16.80
2018-04-11T07:50:57.737Z,16.60
2018-04-11T07:56:00.249Z,17.00
2018-04-11T08:01:02.768Z,17.00
2018-04-11T08:06:05.256Z,16.90
2018-04-11T08:11:07.789Z,17.10
2018-04-11T08:16:11.053Z,17.30
2018-04-11T08:21:13.548Z,16.90
2018-04-11T08:26:16.056Z,17.30
2018-04-11T08:31:18.561Z,17.20
2018-04-11T08:36:21.064Z,17.10
2018-04-11T08:41:23.568Z,17.40
2018-04-11T08:46:26.079Z,17.70
2018-04-11T08:51:28.588Z,17.60
2018-04-11T08:56:31.852Z,17.70
2018-04-11T09:01:34.357Z,17.40
2018-04-11T09:06:36.844Z,17.70
2018-04-11T09:11:40.103Z,17.40
2018-04-11T09:16:42.613Z,17.60
2018-04-11T09:21:45.104Z,17.60
2018-04-11T09:26:47.619Z,17.90
2018-04-11T09:31:50.171Z,17.60
2018-04-11T09:36:52.648Z,17.80
2018-04-11T09:41:55.990Z,17.70
2018-04-11T09:46:59.248Z,17.80
2018-04-11T09:52:01.954Z,17.60
2018-04-11T09:57:04.452Z,17.70
2018-04-11T10:02:06.958Z,17.80
2018-04-11T10:07:09.444Z,18.00
2018-04-11T10:12:11.936Z,17.80
2018-04-11T10:17:14.433Z,17.80
2018-04-11T10:22:16.923Z,17.60
2018-04-11T10:27:20.187Z,17.90
2018-04-11T10:32:22.692Z,18.10
2018-04-11T10:37:25.184Z,18.20
2018-04-11T10:42:27.684Z,17.90
2018-04-11T10:47:30.191Z,18.00
2018-04-11T10:52:32.680Z,18.00
2018-04-11T10:57:35.181Z,18.10
2018-04-11T11:02:37.668Z,18.20
2018-04-11T11:07:40.155Z,18.00
2018-04-11T11:12:43.423Z,18.10
2018-04-11T11:17:45.923Z,18.20
2018-04-11T11:22:48.443Z,18.20
2018-04-11T11:27:50.916Z,18.10
2018-04-11T11:32:54.188Z,18.30
2018-04-11T11:37:57.444Z,18.10
2018-04-11T11:42:59.940Z,18.30
2018-04-11T11:48:02.463Z,18.30
2018-04-11T11:53:04.936Z,18.50
2018-04-11T11:58:07.456Z,18.30
2018-04-11T12:03:09.962Z,18.30
2018-04-11T12:08:12.460Z,18.40
2018-04-11T12:13:14.956Z,18.40
2018-04-11T12:18:17.452Z,18.40
2018-04-11T12:23:19.982Z,18.60
2018-04-11T12:28:22.488Z,18.20
2018-04-11T12:33:24.984Z,18.50
2018-04-11T12:38:27.492Z,18.60
2018-04-11T12:43:29.991Z,18.50
2018-04-11T12:48:32.471Z,18.80
2018-04-11T12:53:34.976Z,18.60
2018-04-11T12:58:37.464Z,18.70
2018-04-11T13:03:39.951Z,18.80
2018-04-11T13:08:42.427Z,18.80
2018-04-11T13:13:44.932Z,18.80
2018-04-11T13:18:47.765Z,18.80
2018-04-11T13:23:50.268Z,18.90
2018-04-11T13:28:52.782Z,18.90
2018-04-11T13:33:56.212Z,18.90
2018-04-11T13:38:58.736Z,19.10
2018-04-11T13:44:01.227Z,18.90
2018-04-11T13:49:03.756Z,19.00
2018-04-11T13:54:06.264Z,19.00
2018-04-11T13:59:09.524Z,18.90
2018-04-11T14:04:12.047Z,19.10
2018-04-11T14:09:14.551Z,19.20
2018-04-11T14:14:17.059Z,19.00
2018-04-11T14:19:20.325Z,19.30
2018-04-11T14:24:22.827Z,18.90
2018-04-11T14:29:25.313Z,18.90
2018-04-11T14:34:27.800Z,19.00
2018-04-11T14:39:30.287Z,19.00
2018-04-11T14:44:34.600Z,19.00
2018-04-11T14:49:37.099Z,19.20
2018-04-11T14:54:39.599Z,19.00
2018-04-11T14:59:42.101Z,19.10
2018-04-11T15:04:44.594Z,19.00
2018-04-11T15:09:47.099Z,19.00
2018-04-11T15:14:50.567Z,19.00
2018-04-11T15:19:53.820Z,19.00
2018-04-11T15:24:56.620Z,19.10
2018-04-11T15:29:59.128Z,19.10
2018-04-11T15:35:01.624Z,19.00
2018-04-11T15:40:04.104Z,19.00
2018-04-11T15:45:06.705Z,19.00
2018-04-11T15:50:09.214Z,19.00
2018-04-11T15:55:11.728Z,19.00
2018-04-11T16:00:14.229Z,19.00
2018-04-11T16:05:16.809Z,19.00
2018-04-11T16:10:19.276Z,19.10
2018-04-11T16:15:22.640Z,18.90
2018-04-11T16:20:25.900Z,18.80
2018-04-11T16:25:28.394Z,19.00
2018-04-11T16:30:30.889Z,18.70
2018-04-11T16:35:33.401Z,18.90
2018-04-11T16:40:35.898Z,18.70
2018-04-11T16:45:38.396Z,18.70
2018-04-11T16:50:40.900Z,18.70
2018-04-11T16:55:43.410Z,18.60
2018-04-11T17:00:46.660Z,18.60
2018-04-11T17:05:49.151Z,18.60
2018-04-11T17:10:51.725Z,18.70
2018-04-11T17:15:54.228Z,18.80
2018-04-11T17:21:08.801Z,18.50
2018-04-11T17:26:23.154Z,18.60
2018-04-11T17:31:28.904Z,18.40
2018-04-11T17:36:31.387Z,18.20
2018-04-11T17:41:33.888Z,18.20
2018-04-11T17:46:36.370Z,18.30
2018-04-11T17:51:38.856Z,18.50
2018-04-11T17:56:41.340Z,18.30
2018-04-11T18:01:43.844Z,18.10
2018-04-11T18:06:46.349Z,18.10
2018-04-11T18:11:48.872Z,18.00
2018-04-11T18:16:52.165Z,18.10
2018-04-11T18:21:54.653Z,18.20
2018-04-11T18:26:57.240Z,18.10
2018-04-11T18:31:59.758Z,17.90
2018-04-11T18:37:02.250Z,18.00
2018-04-11T18:42:05.521Z,17.60
2018-04-11T18:47:08.026Z,17.60
2018-04-11T18:52:10.527Z,17.60
2018-04-11T18:57:13.067Z,17.70
2018-04-11T19:02:15.520Z,17.30
2018-04-11T19:07:18.029Z,17.50
2018-04-11T19:12:21.297Z,17.60
2018-04-11T19:17:23.804Z,17.30
2018-04-11T19:22:26.419Z,17.30
2018-04-11T19:27:28.972Z,17.20
2018-04-11T19:32:31.463Z,17.10
2018-04-11T19:37:33.952Z,17.10
2018-04-11T19:42:36.448Z,17.10
2018-04-11T19:47:38.947Z,16.80
2018-04-11T19:52:41.483Z,17.00
2018-04-11T19:57:43.945Z,16.90
2018-04-11T20:02:46.457Z,16.90
2018-04-11T20:07:48.956Z,17.00
2018-04-11T20:12:51.464Z,16.90
2018-04-11T20:17:54.733Z,16.60
2018-04-11T20:22:57.239Z,16.70
2018-04-11T20:27:59.729Z,16.50
2018-04-11T20:33:02.233Z,16.80
2018-04-11T20:38:04.729Z,16.80
2018-04-11T20:43:07.220Z,16.70
2018-04-11T20:48:09.712Z,16.70
2018-04-11T20:53:12.590Z,16.30
2018-04-11T20:58:15.104Z,16.40
2018-04-11T21:03:17.601Z,16.30
2018-04-11T21:08:20.099Z,16.30
2018-04-11T21:13:22.579Z,16.50
2018-04-11T21:18:25.064Z,16.10
2018-04-11T21:23:27.568Z,16.30
2018-04-11T21:28:30.078Z,16.40
2018-04-11T21:33:33.336Z,15.90
2018-04-11T21:38:35.907Z,15.90
2018-04-11T21:43:38.408Z,15.80
2018-04-11T21:48:40.913Z,16.00
2018-04-11T21:53:43.408Z,15.70
2018-04-11T21:58:45.912Z,15.90
2018-04-11T22:03:48.405Z,15.80
2018-04-11T22:08:50.900Z,15.80
2018-04-11T22:13:53.396Z,15.70
2018-04-11T22:18:55.882Z,15.70
2018-04-11T22:24:08.002Z,15.70
2018-04-11T22:29:11.448Z,15.90
2018-04-11T22:34:13.961Z,15.70
2018-04-11T22:39:17.348Z,15.50
2018-04-11T22:44:19.828Z,15.70
2018-04-11T22:49:22.316Z,15.60
2018-04-11T22:54:26.117Z,15.30
2018-04-11T22:59:28.601Z,15.40
2018-04-11T23:04:31.092Z,15.30
2018-04-11T23:09:33.579Z,15.20
2018-04-11T23:14:36.081Z,15.10
2018-04-11T23:19:38.584Z,15.10
2018-04-11T23:24:41.075Z,15.30
2018-04-11T23:29:43.584Z,15.30
2018-04-11T23:34:46.085Z,15.20
2018-04-11T23:39:48.590Z,15.00
2018-04-11T23:44:51.084Z,15.10
2018-04-11T23:49:53.620Z,15.00
2018-04-11T23:54:56.124Z,14.70
2018-04-11T23:59:58.640Z,14.90
